Time;durP1;ratioP1;P1;durP2;ratioP2;P2;SDS_P1;SDS_P2;PMS_P1;PMS_P2;Temp;Humidity;BMP_temperature;BMP_pressure;BME280_temperature;BME280_humidity;BME280_pressure;Samples;Min_cycle;Max_cycle;Signal;HPM_P1;HPM_P2
2022/05/27 00:00:20;;;;;;;1.67;0.80;;;16.00;85.50;;;;;;2089476;28;20025;-94
2022/05/27 00:01:40;;;;;;;1.95;0.82;;;16.10;85.60;;;;;;2080060;28;20032;-94
2022/05/27 00:02:59;;;;;;;3.47;1.05;;;16.10;85.60;;;;;;2082304;28;20579;-93
2022/05/27 00:04:18;;;;;;;1.70;0.90;;;16.10;85.70;;;;;;2084521;28;20037;-93
2022/05/27 00:05:38;;;;;;;3.20;1.00;;;16.10;85.70;;;;;;2076386;28;20047;-93
2022/05/27 00:06:57;;;;;;;3.55;1.05;;;16.10;85.80;;;;;;2082381;28;20069;-95
2022/05/27 00:08:16;;;;;;;2.75;1.20;;;16.10;85.80;;;;;;2085271;28;20041;-94
2022/05/27 00:09:36;;;;;;;3.28;1.10;;;16.20;86.00;;;;;;2096025;28;20544;-94
2022/05/27 00:10:56;;;;;;;2.35;0.75;;;16.20;86.00;;;;;;2092357;28;20033;-94
2022/05/27 00:12:16;;;;;;;;;;;16.10;85.90;;;;;;2089711;28;20029;-93
2022/05/27 00:13:36;;;;;;;3.53;0.90;;;16.10;85.80;;;;;;2085762;28;19921;-93
2022/05/27 00:14:55;;;;;;;3.65;0.85;;;16.20;85.80;;;;;;2076705;28;20034;-94
2022/05/27 00:16:15;;;;;;;2.85;1.00;;;16.20;85.80;;;;;;2074612;28;20065;-94
2022/05/27 00:17:34;;;;;;;3.13;1.02;;;16.20;85.90;;;;;;2090967;28;20064;-95
2022/05/27 00:18:55;;;;;;;3.92;0.90;;;16.10;85.90;;;;;;2091204;28;20029;-94
2022/05/27 00:20:15;;;;;;;4.25;1.17;;;16.20;86.00;;;;;;2092906;28;20055;-95
2022/05/27 00:21:34;;;;;;;3.70;1.38;;;16.20;86.10;;;;;;2083637;28;20444;-94
2022/05/27 00:22:53;;;;;;;3.97;1.00;;;16.20;86.20;;;;;;2085055;28;20072;-95
2022/05/27 00:24:12;;;;;;;3.17;1.08;;;16.20;86.30;;;;;;2089492;28;20021;-95
2022/05/27 00:25:31;;;;;;;3.20;1.20;;;16.10;86.40;;;;;;2086671;28;20059;-94
2022/05/27 00:26:51;;;;;;;3.70;1.10;;;16.20;86.60;;;;;;2097102;28;20471;-93
2022/05/27 00:28:10;;;;;;;1.75;0.90;;;16.10;86.70;;;;;;2083791;28;20041;-95
2022/05/27 00:29:30;;;;;;;2.63;1.20;;;16.10;86.80;;;;;;2085620;28;20024;-94
2022/05/27 00:30:49;;;;;;;3.60;1.23;;;16.00;86.90;;;;;;2091973;28;20028;-95
2022/05/27 00:32:08;;;;;;;3.47;1.17;;;16.00;87.00;;;;;;2088524;28;20037;-93
2022/05/27 00:33:28;;;;;;;3.78;1.20;;;16.00;87.20;;;;;;2089116;28;20024;-94
2022/05/27 00:34:47;;;;;;;2.83;1.20;;;16.00;87.30;;;;;;2082201;28;20033;-94
2022/05/27 00:36:10;;;;;;;3.10;1.00;;;16.00;87.50;;;;;;2088475;28;20029;-95
2022/05/27 00:37:29;;;;;;;2.95;1.20;;;16.00;87.60;;;;;;2089363;28;20033;-94
2022/05/27 00:38:50;;;;;;;5.03;1.52;;;15.90;87.70;;;;;;2096024;28;20033;-96
2022/05/27 00:40:11;;;;;;;4.32;1.10;;;15.90;87.80;;;;;;2095758;28;20416;-95
2022/05/27 00:41:31;;;;;;;;;;;15.90;88.00;;;;;;2096867;28;20040;-94
2022/05/27 00:42:50;;;;;;;4.05;1.50;;;15.80;87.90;;;;;;2095786;28;19967;-95
2022/05/27 00:44:09;;;;;;;4.43;1.40;;;15.80;88.00;;;;;;2085050;28;20029;-94
2022/05/27 00:45:28;;;;;;;6.30;1.60;;;15.80;88.30;;;;;;2085098;28;20464;-94
2022/05/27 00:46:48;;;;;;;7.47;1.73;;;15.70;88.90;;;;;;2088029;28;20097;-95
2022/05/27 00:48:11;;;;;;;4.82;1.33;;;15.60;89.10;;;;;;2092862;28;20044;-93
2022/05/27 00:49:32;;;;;;;5.35;1.50;;;15.50;89.50;;;;;;2096775;28;20033;-93
2022/05/27 00:50:52;;;;;;;;;;;15.50;89.90;;;;;;2095998;28;20048;-93
2022/05/27 00:52:13;;;;;;;5.13;1.52;;;15.40;90.00;;;;;;2096887;28;19912;-93
2022/05/27 00:54:01;;;;;;;3.63;1.40;;;15.30;90.10;;;;;;2095954;28;20115;-93
2022/05/27 00:55:25;;;;;;;3.35;1.20;;;15.20;90.20;;;;;;2097255;28;20028;-92
2022/05/27 00:56:50;;;;;;;2.15;1.10;;;15.10;90.30;;;;;;2095622;28;20025;-93
2022/05/27 00:58:19;;;;;;;3.72;1.10;;;15.00;90.50;;;;;;2095533;28;20500;-94
2022/05/27 00:59:48;;;;;;;4.18;1.15;;;15.00;90.60;;;;;;2097743;28;20025;-94
2022/05/27 01:01:07;;;;;;;1.92;0.90;;;15.00;90.70;;;;;;2106454;28;20024;-93
2022/05/27 01:02:27;;;;;;;3.15;1.00;;;14.90;90.80;;;;;;2090608;28;20044;-93
2022/05/27 01:03:48;;;;;;;3.35;0.82;;;14.90;90.90;;;;;;2091318;28;20036;-92
2022/05/27 01:05:10;;;;;;;2.42;0.68;;;14.80;90.90;;;;;;2095224;28;20059;-95
2022/05/27 01:06:29;;;;;;;2.50;0.88;;;14.80;91.00;;;;;;2094859;28;20037;-93
2022/05/27 01:07:53;;;;;;;3.78;0.90;;;14.80;91.10;;;;;;2080063;28;20037;-95
2022/05/27 01:09:13;;;;;;;2.08;0.82;;;14.80;91.20;;;;;;2097028;28;20032;-93
2022/05/27 01:10:52;;;;;;;3.40;0.80;;;14.80;91.20;;;;;;2095148;28;20037;-93
2022/05/27 01:12:21;;;;;;;2.10;0.80;;;14.80;91.30;;;;;;2096007;28;20040;-94
2022/05/27 01:14:14;;;;;;;3.10;0.85;;;14.70;91.30;;;;;;2099223;28;20032;-96
2022/05/27 01:16:09;;;;;;;1.52;0.57;;;14.70;91.30;;;;;;2098968;28;20092;-94
2022/05/27 01:18:05;;;;;;;1.65;0.70;;;14.60;91.30;;;;;;2097022;28;20115;-94
2022/05/27 01:20:21;;;;;;;3.45;0.75;;;14.60;91.40;;;;;;2094447;28;20111;-93
2022/05/27 01:22:17;;;;;;;2.40;0.70;;;14.50;91.40;;;;;;2106842;28;20008;-93
2022/05/27 01:24:01;;;;;;;2.08;0.70;;;14.50;91.40;;;;;;2099111;28;20036;-95
2022/05/27 01:25:39;;;;;;;2.42;0.73;;;14.50;91.50;;;;;;2098529;28;20024;-95
2022/05/27 01:27:18;;;;;;;2.92;0.85;;;14.50;91.50;;;;;;2097825;28;20118;-95
2022/05/27 01:29:10;;;;;;;2.00;0.60;;;14.50;91.60;;;;;;2098170;28;20032;-94
2022/05/27 01:31:09;;;;;;;1.83;0.80;;;14.50;91.60;;;;;;2107461;28;20036;-94
2022/05/27 01:32:42;;;;;;;1.77;0.60;;;14.50;91.60;;;;;;2098149;28;20037;-94
2022/05/27 01:34:24;;;;;;;2.05;0.80;;;14.50;91.70;;;;;;2102612;28;20103;-95
2022/05/27 01:35:43;;;;;;;1.38;0.50;;;14.50;91.70;;;;;;2100062;28;20137;-94
2022/05/27 01:37:17;;;;;;;1.75;0.63;;;14.50;92.00;;;;;;2094506;28;20088;-95
2022/05/27 01:38:49;;;;;;;1.17;0.50;;;14.50;91.80;;;;;;2091899;28;20508;-96
2022/05/27 01:40:34;;;;;;;1.40;0.60;;;14.50;91.90;;;;;;2097240;28;20054;-96
2022/05/27 01:42:05;;;;;;;1.98;1.13;;;14.50;91.90;;;;;;2097349;28;20492;-96
2022/05/27 01:43:35;;;;;;;;;;;14.50;92.00;;;;;;2097573;28;20521;-96
2022/05/27 01:45:07;;;;;;;1.65;0.60;;;14.50;91.90;;;;;;2097696;28;19995;-96
2022/05/27 01:46:46;;;;;;;2.15;0.73;;;14.50;91.90;;;;;;2093975;28;20048;-96
2022/05/27 01:48:26;;;;;;;1.55;0.73;;;14.50;92.00;;;;;;2082524;28;20506;-95
2022/05/27 01:49:53;;;;;;;1.98;0.90;;;14.40;92.00;;;;;;2093983;28;20028;-94
2022/05/27 01:51:15;;;;;;;3.67;0.90;;;14.40;92.10;;;;;;2092460;28;20108;-96
2022/05/27 01:52:44;;;;;;;2.60;0.88;;;14.50;92.10;;;;;;2093655;28;20032;-96
2022/05/27 01:54:13;;;;;;;2.05;0.70;;;14.50;92.20;;;;;;2096885;28;20028;-96
2022/05/27 01:55:55;;;;;;;1.60;0.68;;;14.50;92.20;;;;;;2097037;28;20115;-95
2022/05/27 01:57:24;;;;;;;2.33;0.70;;;14.50;92.20;;;;;;2096999;28;20100;-94
2022/05/27 01:59:06;;;;;;;2.53;0.90;;;14.50;92.30;;;;;;2098678;28;20025;-95
2022/05/27 02:00:27;;;;;;;1.70;0.80;;;14.50;92.30;;;;;;2096712;28;20033;-94
2022/05/27 02:02:00;;;;;;;2.97;0.88;;;14.50;92.30;;;;;;2101596;28;20500;-95
2022/05/27 02:03:29;;;;;;;2.55;0.77;;;14.50;92.30;;;;;;2098871;28;20036;-94
2022/05/27 02:05:04;;;;;;;2.05;0.88;;;14.50;92.40;;;;;;2093041;28;20067;-95
2022/05/27 02:06:30;;;;;;;2.83;0.85;;;14.40;92.40;;;;;;2099045;28;20024;-95
2022/05/27 02:07:58;;;;;;;2.15;1.00;;;14.50;92.40;;;;;;2099020;28;20413;-94
2022/05/27 02:09:26;;;;;;;1.80;0.70;;;14.40;92.50;;;;;;2098328;28;20044;-95
2022/05/27 02:11:03;;;;;;;1.48;0.75;;;14.50;92.50;;;;;;2102760;28;20036;-95
2022/05/27 02:12:43;;;;;;;2.85;0.95;;;14.50;92.50;;;;;;2099233;28;20044;-95
2022/05/27 02:14:14;;;;;;;3.28;0.80;;;14.50;92.50;;;;;;2097406;28;20033;-94
2022/05/27 02:15:39;;;;;;;2.47;0.80;;;14.50;92.50;;;;;;2092505;28;20612;-94
2022/05/27 02:17:04;;;;;;;2.45;0.82;;;14.50;92.50;;;;;;2095433;28;20119;-95
2022/05/27 02:18:48;;;;;;;2.33;0.93;;;14.40;92.60;;;;;;2091380;28;20040;-96
2022/05/27 02:20:22;;;;;;;2.00;0.77;;;14.50;92.60;;;;;;2098587;28;20493;-95
2022/05/27 02:21:50;;;;;;;2.28;1.00;;;14.50;92.70;;;;;;2097429;28;20512;-95
2022/05/27 02:23:33;;;;;;;4.00;0.90;;;14.50;92.70;;;;;;2096565;28;20025;-95
2022/05/27 02:25:04;;;;;;;3.10;0.98;;;14.50;92.70;;;;;;2097369;28;20040;-95
2022/05/27 02:26:30;;;;;;;3.25;0.98;;;14.50;92.70;;;;;;2097487;28;20062;-94
2022/05/27 02:28:08;;;;;;;2.80;0.80;;;14.50;92.70;;;;;;2098139;28;20028;-94
2022/05/27 02:29:31;;;;;;;3.30;0.90;;;14.50;92.70;;;;;;2097713;28;20032;-94
2022/05/27 02:30:56;;;;;;;2.70;0.93;;;14.50;92.70;;;;;;2092847;28;20044;-93
2022/05/27 02:32:41;;;;;;;3.60;0.90;;;14.40;92.70;;;;;;2096325;28;20060;-95
2022/05/27 02:35:53;;;;;;;3.60;0.93;;;14.40;92.80;;;;;;2093078;28;20028;-94
2022/05/27 02:37:18;;;;;;;2.33;0.80;;;14.50;92.80;;;;;;2097938;28;20037;-95
2022/05/27 02:38:38;;;;;;;3.63;1.10;;;14.40;92.80;;;;;;2096778;28;20488;-95
2022/05/27 02:40:00;;;;;;;3.55;1.00;;;14.50;92.80;;;;;;2099260;28;20455;-94
2022/05/27 02:41:45;;;;;;;2.67;1.00;;;14.40;92.80;;;;;;2089451;28;20452;-95
2022/05/27 02:43:23;;;;;;;2.45;1.10;;;14.40;92.80;;;;;;2093047;28;20053;-95
2022/05/27 02:45:07;;;;;;;2.40;0.93;;;14.40;92.90;;;;;;2092072;28;20049;-96
2022/05/27 02:46:54;;;;;;;2.78;0.98;;;14.40;92.90;;;;;;2093401;28;20044;-95
2022/05/27 02:48:16;;;;;;;2.35;0.90;;;14.40;92.90;;;;;;2102578;28;20032;-95
2022/05/27 02:49:49;;;;;;;3.38;1.02;;;14.40;93.00;;;;;;2093309;28;20335;-94
2022/05/27 02:51:23;;;;;;;3.45;1.10;;;14.30;93.00;;;;;;2098370;28;20036;-94
2022/05/27 02:52:56;;;;;;;3.05;1.00;;;14.30;93.00;;;;;;2094804;28;20068;-94
2022/05/27 02:54:38;;;;;;;4.05;1.08;;;14.30;93.00;;;;;;2104171;28;20064;-95
2022/05/27 02:55:57;;;;;;;3.35;0.90;;;14.30;93.00;;;;;;2097493;28;20021;-94
2022/05/27 02:57:19;;;;;;;3.17;1.08;;;14.30;93.00;;;;;;2094777;28;20056;-95
2022/05/27 02:58:38;;;;;;;2.33;1.00;;;14.30;93.10;;;;;;2096048;28;20029;-94
2022/05/27 03:00:01;;;;;;;2.92;0.90;;;14.30;93.10;;;;;;2090671;28;20045;-95
2022/05/27 03:01:21;;;;;;;5.05;1.00;;;14.20;93.10;;;;;;2096180;28;20508;-95
2022/05/27 03:02:41;;;;;;;1.83;0.90;;;14.30;93.10;;;;;;2097324;28;20029;-96
2022/05/27 03:04:00;;;;;;;2.42;1.00;;;14.30;93.20;;;;;;2080351;28;20033;-95
2022/05/27 03:05:25;;;;;;;3.47;1.25;;;14.30;93.20;;;;;;2088056;28;20033;-96
2022/05/27 03:07:15;;;;;;;2.60;1.05;;;14.20;93.20;;;;;;2091351;28;20052;-95
2022/05/27 03:09:06;;;;;;;2.42;0.98;;;14.20;93.20;;;;;;2097274;28;20028;-94
2022/05/27 03:10:51;;;;;;;2.38;0.95;;;14.20;93.20;;;;;;2097936;28;20021;-96
2022/05/27 03:12:40;;;;;;;1.80;0.77;;;14.20;93.10;;;;;;2099100;28;20052;-95
2022/05/27 03:14:00;;;;;;;2.70;0.90;;;14.20;93.10;;;;;;2099179;28;20032;-95
2022/05/27 03:15:38;;;;;;;2.65;1.10;;;14.20;93.10;;;;;;2098146;28;20029;-94
2022/05/27 03:17:09;;;;;;;4.10;1.08;;;14.20;93.20;;;;;;2103175;28;20044;-95
2022/05/27 03:18:40;;;;;;;2.22;0.90;;;14.20;93.20;;;;;;2099688;28;20040;-95
2022/05/27 03:20:16;;;;;;;2.47;1.13;;;14.20;93.20;;;;;;2094582;28;20033;-95
2022/05/27 03:21:45;;;;;;;3.10;0.95;;;14.20;93.20;;;;;;2104010;28;20044;-95
2022/05/27 03:23:25;;;;;;;3.00;1.20;;;14.20;93.20;;;;;;2093704;28;20037;-95
2022/05/27 03:24:57;;;;;;;3.45;1.40;;;14.20;93.10;;;;;;2106836;28;20036;-94
2022/05/27 03:26:50;;;;;;;2.88;1.10;;;14.20;93.20;;;;;;2092531;28;20025;-95
2022/05/27 03:28:24;;;;;;;3.13;1.10;;;14.20;93.20;;;;;;2092910;28;20033;-95
2022/05/27 03:29:53;;;;;;;3.10;1.20;;;14.20;93.20;;;;;;2090752;28;20465;-96
2022/05/27 03:31:29;;;;;;;1.92;1.00;;;14.20;93.20;;;;;;2098970;28;20020;-94
2022/05/27 03:32:50;;;;;;;3.10;1.10;;;14.20;93.20;;;;;;2097705;28;20025;-95
2022/05/27 03:34:13;;;;;;;3.72;1.17;;;14.20;93.20;;;;;;2100768;28;20029;-94
2022/05/27 03:35:53;;;;;;;4.18;1.27;;;14.10;93.20;;;;;;2096255;28;20036;-95
2022/05/27 03:37:38;;;;;;;3.92;1.20;;;14.20;93.30;;;;;;2097834;28;20036;-94
2022/05/27 03:39:32;;;;;;;4.22;1.30;;;14.20;93.30;;;;;;2098556;28;20104;-94
2022/05/27 03:41:13;;;;;;;3.78;1.20;;;14.20;93.30;;;;;;2073009;28;20574;-95
2022/05/27 03:42:34;;;;;;;3.15;1.23;;;14.10;93.20;;;;;;2070768;28;20058;-94
2022/05/27 03:43:54;;;;;;;3.40;1.10;;;14.10;93.20;;;;;;2095610;28;20021;-94
2022/05/27 03:45:17;;;;;;;2.15;0.95;;;14.10;93.20;;;;;;2090084;28;20037;-95
2022/05/27 03:46:38;;;;;;;4.00;1.20;;;14.20;93.20;;;;;;2092419;28;21054;-95
2022/05/27 03:47:57;;;;;;;3.85;1.30;;;14.10;93.20;;;;;;2087933;28;20481;-94
2022/05/27 03:49:17;;;;;;;4.88;1.30;;;14.10;93.20;;;;;;2087578;28;20033;-94
2022/05/27 03:50:36;;;;;;;3.78;1.20;;;14.20;93.30;;;;;;2090711;28;20500;-94
2022/05/27 03:52:08;;;;;;;5.07;1.00;;;14.10;93.30;;;;;;2089581;28;20033;-94
2022/05/27 03:55:07;;;;;;;3.13;1.13;;;14.10;93.30;;;;;;2085972;28;20516;-95
2022/05/27 03:56:28;;;;;;;2.13;1.00;;;14.10;93.30;;;;;;2094789;28;20029;-95
2022/05/27 03:57:48;;;;;;;3.17;1.08;;;14.10;93.30;;;;;;2095083;28;20025;-95
2022/05/27 03:59:11;;;;;;;3.13;1.00;;;14.10;93.40;;;;;;2087590;28;20409;-95
2022/05/27 04:00:30;;;;;;;3.53;1.02;;;14.00;93.30;;;;;;2093232;28;20020;-95
2022/05/27 04:01:51;;;;;;;5.18;1.77;;;14.10;93.30;;;;;;2087224;28;20041;-95
2022/05/27 04:03:11;;;;;;;4.65;1.20;;;14.10;93.30;;;;;;2095038;28;20032;-94
2022/05/27 04:04:31;;;;;;;2.97;0.85;;;14.00;93.30;;;;;;2088185;28;20028;-95
2022/05/27 04:05:51;;;;;;;2.80;1.00;;;14.00;93.40;;;;;;2084655;28;20037;-95
2022/05/27 04:07:10;;;;;;;3.42;1.10;;;14.00;93.40;;;;;;2080279;28;20038;-94
2022/05/27 04:08:29;;;;;;;3.72;1.40;;;14.00;93.40;;;;;;2086932;28;20421;-94
2022/05/27 04:09:48;;;;;;;2.50;1.27;;;14.00;93.40;;;;;;2096757;28;20037;-93
2022/05/27 04:11:08;;;;;;;3.40;1.02;;;14.00;93.40;;;;;;2092817;28;20040;-95
2022/05/27 04:12:27;;;;;;;3.08;1.10;;;14.00;93.40;;;;;;2092373;28;20052;-94
2022/05/27 04:13:47;;;;;;;6.78;1.23;;;14.00;93.40;;;;;;2082539;28;20421;-95
2022/05/27 04:15:07;;;;;;;3.65;1.30;;;14.00;93.40;;;;;;2084336;28;20029;-96
2022/05/27 04:16:26;;;;;;;2.30;1.00;;;14.00;93.40;;;;;;2088111;28;20033;-95
2022/05/27 04:17:46;;;;;;;3.15;1.27;;;14.10;93.40;;;;;;2090202;28;20417;-94
2022/05/27 04:19:05;;;;;;;2.28;0.95;;;14.00;93.40;;;;;;2091950;28;20107;-94
2022/05/27 04:20:25;;;;;;;4.43;1.13;;;14.10;93.40;;;;;;2088049;28;20025;-93
2022/05/27 04:21:45;;;;;;;3.97;1.10;;;14.10;93.40;;;;;;2093541;28;20068;-93
2022/05/27 04:23:05;;;;;;;3.15;1.10;;;14.10;93.40;;;;;;2082676;28;20029;-94
2022/05/27 04:24:24;;;;;;;3.03;0.80;;;14.10;93.40;;;;;;2091589;28;20029;-94
2022/05/27 04:25:48;;;;;;;5.32;1.20;;;14.10;93.40;;;;;;2092918;28;20412;-94
2022/05/27 04:27:13;;;;;;;1.70;0.93;;;14.10;93.40;;;;;;2097857;28;20044;-95
2022/05/27 04:28:34;;;;;;;3.80;1.02;;;14.10;93.40;;;;;;2089129;28;20037;-93
2022/05/27 04:29:53;;;;;;;2.97;1.25;;;14.10;93.40;;;;;;2090430;28;20520;-94
2022/05/27 04:31:13;;;;;;;4.15;1.42;;;14.20;93.40;;;;;;2088645;28;20036;-94
2022/05/27 04:32:32;;;;;;;3.35;1.17;;;14.20;93.40;;;;;;2095954;28;20037;-93
2022/05/27 04:33:52;;;;;;;3.53;1.00;;;14.20;93.30;;;;;;2091185;28;20036;-93
2022/05/27 04:35:11;;;;;;;4.55;1.30;;;14.20;93.30;;;;;;2084903;28;20025;-94
2022/05/27 04:36:30;;;;;;;4.88;1.30;;;14.20;93.30;;;;;;2091266;28;20060;-93
2022/05/27 04:37:50;;;;;;;4.95;1.30;;;14.20;93.30;;;;;;2085002;28;20048;-94
2022/05/27 04:39:09;;;;;;;2.75;1.10;;;14.20;93.30;;;;;;2080503;28;20037;-94
2022/05/27 04:40:28;;;;;;;4.43;1.30;;;14.20;93.30;;;;;;2087946;28;20041;-94
2022/05/27 04:41:47;;;;;;;3.83;1.10;;;14.20;93.30;;;;;;2093168;28;20070;-93
2022/05/27 04:43:07;;;;;;;3.55;1.20;;;14.20;93.30;;;;;;2081595;28;20053;-95
2022/05/27 04:44:27;;;;;;;2.03;0.98;;;14.20;93.30;;;;;;2098166;28;20500;-95
2022/05/27 04:45:47;;;;;;;3.35;1.02;;;14.20;93.30;;;;;;2089997;28;20417;-94
2022/05/27 04:47:08;;;;;;;3.45;1.10;;;14.20;93.30;;;;;;2089095;28;20033;-94
2022/05/27 04:48:27;;;;;;;4.53;0.98;;;14.30;93.40;;;;;;2095485;28;20044;-94
2022/05/27 04:49:56;;;;;;;4.15;1.23;;;14.30;93.30;;;;;;2089598;28;20061;-94
2022/05/27 04:51:15;;;;;;;3.22;0.90;;;14.30;93.30;;;;;;2092700;28;20029;-94
2022/05/27 04:52:34;;;;;;;5.18;1.20;;;14.30;93.30;;;;;;2095362;28;20099;-94
2022/05/27 04:53:54;;;;;;;4.80;1.15;;;14.30;93.30;;;;;;2086476;28;20045;-94
2022/05/27 04:55:15;;;;;;;3.13;1.05;;;14.30;93.30;;;;;;2071602;28;20041;-95
2022/05/27 04:56:34;;;;;;;4.25;1.10;;;14.30;93.30;;;;;;2090928;28;20106;-94
2022/05/27 04:57:55;;;;;;;3.97;1.00;;;14.40;93.30;;;;;;2097639;28;20024;-93
2022/05/27 04:59:14;;;;;;;2.20;1.00;;;14.40;93.30;;;;;;2096224;28;20091;-93
2022/05/27 05:00:37;;;;;;;3.28;1.10;;;14.50;93.30;;;;;;2081456;28;20034;-95
2022/05/27 05:01:56;;;;;;;4.53;1.40;;;14.50;93.20;;;;;;2092402;28;20508;-95
2022/05/27 05:03:17;;;;;;;4.45;1.30;;;14.60;93.20;;;;;;2090487;28;20036;-95
2022/05/27 05:04:36;;;;;;;3.88;1.30;;;14.60;93.20;;;;;;2082827;28;20494;-94
2022/05/27 05:05:55;;;;;;;3.30;1.08;;;14.70;93.10;;;;;;2077258;28;20116;-94
2022/05/27 05:07:15;;;;;;;3.15;1.10;;;14.70;93.10;;;;;;2088587;28;20417;-94
2022/05/27 05:08:36;;;;;;;3.83;1.17;;;14.80;93.00;;;;;;2087624;28;20393;-95
2022/05/27 05:09:57;;;;;;;2.70;0.90;;;14.90;93.00;;;;;;2095499;28;20033;-94
2022/05/27 05:11:17;;;;;;;4.90;1.10;;;14.90;92.90;;;;;;2088262;28;20107;-94
2022/05/27 05:12:36;;;;;;;2.20;0.88;;;14.90;92.80;;;;;;2085460;28;20037;-95
2022/05/27 05:13:56;;;;;;;2.85;0.95;;;15.00;92.80;;;;;;2093549;28;20501;-94
2022/05/27 05:15:16;;;;;;;3.20;1.10;;;15.00;92.70;;;;;;2096948;28;20025;-93
2022/05/27 05:16:35;;;;;;;4.28;1.08;;;15.10;92.70;;;;;;2096435;28;20469;-94
2022/05/27 05:17:55;;;;;;;3.15;1.05;;;15.10;92.70;;;;;;2080985;28;20025;-94
2022/05/27 05:19:14;;;;;;;3.10;1.30;;;15.20;92.70;;;;;;2093044;28;20099;-93
2022/05/27 05:20:35;;;;;;;4.63;1.20;;;15.30;92.60;;;;;;2086915;28;20029;-94
2022/05/27 05:21:55;;;;;;;5.15;1.20;;;15.30;92.50;;;;;;2089207;28;20028;-94
2022/05/27 05:23:14;;;;;;;3.20;1.23;;;15.40;92.40;;;;;;2093387;28;20415;-94
2022/05/27 05:24:33;;;;;;;3.83;1.35;;;15.50;92.40;;;;;;2091543;28;20037;-94
2022/05/27 05:25:53;;;;;;;3.45;1.20;;;15.60;92.30;;;;;;2090526;28;20064;-94
2022/05/27 05:27:12;;;;;;;4.03;1.20;;;15.60;92.20;;;;;;2086793;28;20600;-94
2022/05/27 05:28:31;;;;;;;4.10;1.33;;;15.70;92.20;;;;;;2095124;28;20036;-94
2022/05/27 05:29:53;;;;;;;4.60;1.25;;;15.70;92.10;;;;;;2085216;28;20037;-92
2022/05/27 05:31:16;;;;;;;4.15;1.00;;;15.80;92.00;;;;;;2078563;28;20614;-94
2022/05/27 05:32:35;;;;;;;5.78;1.58;;;15.80;92.00;;;;;;2083967;28;20045;-94
2022/05/27 05:33:59;;;;;;;3.95;1.30;;;15.90;91.90;;;;;;2096186;28;20036;-94
2022/05/27 05:35:19;;;;;;;6.55;1.58;;;16.00;91.90;;;;;;2090852;28;20025;-95
2022/05/27 05:36:38;;;;;;;4.88;1.20;;;16.00;91.80;;;;;;2090333;28;20083;-93
2022/05/27 05:37:58;;;;;;;4.57;1.02;;;16.10;91.80;;;;;;2081740;28;20033;-93
2022/05/27 05:39:17;;;;;;;3.45;1.15;;;16.10;91.70;;;;;;2091682;28;20024;-95
2022/05/27 05:40:39;;;;;;;3.65;1.33;;;16.10;91.70;;;;;;2077862;28;20026;-94
2022/05/27 05:42:00;;;;;;;5.05;1.42;;;16.10;91.80;;;;;;2089729;28;20037;-93
2022/05/27 05:43:19;;;;;;;4.35;1.30;;;16.00;91.80;;;;;;2093491;28;20049;-95
2022/05/27 05:44:39;;;;;;;5.18;1.50;;;16.00;91.80;;;;;;2088888;28;20528;-93
2022/05/27 05:45:58;;;;;;;4.78;1.50;;;16.10;91.80;;;;;;2088759;28;20037;-94
2022/05/27 05:47:18;;;;;;;4.95;1.40;;;16.10;91.80;;;;;;2087021;28;20104;-94
2022/05/27 05:48:37;;;;;;;5.22;1.52;;;16.10;91.70;;;;;;2095580;28;20032;-94
2022/05/27 05:49:56;;;;;;;6.00;1.70;;;16.20;91.70;;;;;;2089811;28;20029;-94
2022/05/27 05:51:17;;;;;;;6.53;1.50;;;16.20;91.60;;;;;;2095872;28;20028;-93
2022/05/27 05:52:36;;;;;;;3.35;1.50;;;16.20;91.60;;;;;;2088344;28;20032;-93
2022/05/27 05:53:55;;;;;;;3.50;1.33;;;16.30;91.60;;;;;;2089901;28;20068;-94
2022/05/27 05:55:17;;;;;;;5.53;1.45;;;16.30;91.60;;;;;;2087026;28;20128;-94
2022/05/27 05:56:37;;;;;;;5.18;1.42;;;16.30;91.60;;;;;;2095636;28;20136;-93
2022/05/27 05:57:56;;;;;;;3.83;1.40;;;16.20;91.60;;;;;;2094477;28;20024;-95
2022/05/27 05:59:16;;;;;;;4.78;1.25;;;16.30;91.60;;;;;;2079559;28;20514;-93
2022/05/27 06:00:35;;;;;;;6.18;1.38;;;16.30;91.60;;;;;;2079110;28;20041;-93
2022/05/27 06:01:54;;;;;;;4.45;1.30;;;16.40;91.60;;;;;;2073609;28;20030;-93
2022/05/27 06:03:14;;;;;;;4.30;1.30;;;16.40;91.50;;;;;;2078952;28;20053;-94
2022/05/27 06:04:34;;;;;;;5.63;1.50;;;16.50;91.40;;;;;;2081814;28;20085;-94
2022/05/27 06:05:54;;;;;;;5.70;1.50;;;16.50;91.40;;;;;;2093609;28;20029;-93
2022/05/27 06:07:14;;;;;;;4.53;1.20;;;16.60;91.40;;;;;;2096297;28;20064;-94
2022/05/27 06:08:33;;;;;;;3.53;1.10;;;16.50;91.30;;;;;;2080946;28;20049;-93
2022/05/27 06:09:53;;;;;;;4.10;1.33;;;16.60;91.30;;;;;;2082189;28;20259;-93
2022/05/27 06:11:12;;;;;;;4.95;1.50;;;16.50;91.20;;;;;;2090248;28;20032;-94
2022/05/27 06:12:36;;;;;;;5.72;1.52;;;16.50;91.20;;;;;;2087546;28;20037;-93
2022/05/27 06:13:55;;;;;;;5.07;1.33;;;16.40;91.30;;;;;;2085859;28;20045;-93
2022/05/27 06:15:15;;;;;;;3.70;1.05;;;16.40;91.30;;;;;;2086371;28;20115;-94
2022/05/27 06:16:34;;;;;;;4.63;1.38;;;16.40;91.30;;;;;;2078991;28;20040;-93
2022/05/27 06:17:53;;;;;;;5.07;1.30;;;16.40;91.20;;;;;;2076092;28;20057;-92
2022/05/27 06:19:13;;;;;;;5.07;1.35;;;16.40;91.20;;;;;;2087691;28;20025;-93
2022/05/27 06:20:33;;;;;;;4.07;1.20;;;16.40;91.20;;;;;;2087829;28;20080;-93
2022/05/27 06:21:53;;;;;;;5.32;1.52;;;16.40;91.30;;;;;;2093917;28;20024;-93
2022/05/27 06:23:13;;;;;;;3.92;1.27;;;16.40;91.20;;;;;;2076501;28;21095;-93
2022/05/27 06:24:32;;;;;;;4.97;1.30;;;16.40;91.20;;;;;;2094233;28;20036;-93
2022/05/27 06:26:04;;;;;;;3.78;1.13;;;16.40;91.20;;;;;;2077331;28;20066;-93
2022/05/27 06:27:23;;;;;;;3.67;1.10;;;16.40;91.10;;;;;;2091675;28;20153;-93
2022/05/27 06:35:18;;;;;;;5.13;1.40;;;16.20;91.20;;;;;;2088897;28;20138;-92
2022/05/27 06:36:37;;;;;;;3.75;1.30;;;16.20;91.10;;;;;;2084757;28;20037;-94
2022/05/27 06:37:57;;;;;;;3.47;1.13;;;16.20;91.00;;;;;;2082893;28;20029;-94
2022/05/27 06:39:17;;;;;;;3.28;1.05;;;16.10;91.00;;;;;;2078465;28;20033;-93
2022/05/27 06:40:36;;;;;;;3.25;1.00;;;16.10;90.90;;;;;;2092453;28;20032;-93
2022/05/27 06:41:55;;;;;;;4.90;1.40;;;16.10;90.90;;;;;;2083813;28;20068;-94
2022/05/27 06:43:15;;;;;;;4.90;1.10;;;16.10;90.80;;;;;;2089085;28;20052;-94
2022/05/27 06:44:35;;;;;;;4.22;0.90;;;16.10;90.80;;;;;;2097671;28;20496;-92
2022/05/27 06:45:54;;;;;;;4.82;1.00;;;16.10;90.70;;;;;;2081402;28;20029;-93
2022/05/27 06:47:14;;;;;;;2.88;1.13;;;16.10;90.70;;;;;;2086245;28;20033;-94
2022/05/27 06:48:33;;;;;;;2.42;1.00;;;16.00;90.60;;;;;;2087581;28;20072;-93
2022/05/27 06:49:53;;;;;;;3.70;1.10;;;16.00;90.60;;;;;;2083404;28;20397;-93
2022/05/27 06:51:12;;;;;;;4.18;1.02;;;16.00;90.60;;;;;;2087354;28;20344;-95
2022/05/27 06:52:31;;;;;;;3.35;1.00;;;16.00;90.50;;;;;;2088107;28;20036;-94
2022/05/27 06:53:51;;;;;;;4.60;1.30;;;16.00;90.40;;;;;;2083339;28;20037;-92
2022/05/27 06:55:13;;;;;;;2.63;0.80;;;16.10;90.40;;;;;;2091516;28;20017;-95
2022/05/27 06:56:38;;;;;;;3.22;0.90;;;16.20;90.20;;;;;;2092794;28;20040;-93
2022/05/27 06:57:57;;;;;;;4.85;1.30;;;16.20;90.10;;;;;;2091080;28;20025;-93
2022/05/27 06:59:17;;;;;;;4.75;1.20;;;16.30;90.00;;;;;;2081883;28;20045;-93
2022/05/27 07:00:36;;;;;;;3.17;1.00;;;16.20;89.80;;;;;;2084000;28;20405;-92
2022/05/27 07:01:56;;;;;;;5.18;1.23;;;16.20;89.80;;;;;;2085364;28;20078;-93
2022/05/27 07:03:15;;;;;;;3.92;1.25;;;16.20;90.00;;;;;;2094591;28;20512;-94
2022/05/27 07:04:35;;;;;;;5.28;1.27;;;16.20;90.00;;;;;;2077116;28;20046;-94
2022/05/27 07:05:54;;;;;;;2.72;1.00;;;16.10;89.80;;;;;;2080851;28;20040;-94
2022/05/27 07:07:13;;;;;;;4.47;1.08;;;16.10;89.70;;;;;;2077671;28;20042;-94
2022/05/27 07:08:33;;;;;;;3.83;1.25;;;16.00;89.70;;;;;;2085046;28;20041;-93
2022/05/27 07:09:52;;;;;;;4.38;1.15;;;16.00;89.80;;;;;;2095343;28;20041;-94
2022/05/27 07:11:12;;;;;;;4.20;1.05;;;16.00;89.90;;;;;;2086899;28;20018;-92
2022/05/27 07:12:31;;;;;;;3.40;1.20;;;16.10;89.80;;;;;;2086392;28;20059;-95
2022/05/27 07:13:51;;;;;;;4.00;1.00;;;16.20;89.60;;;;;;2092711;28;20029;-93
2022/05/27 07:15:10;;;;;;;2.97;0.95;;;16.30;89.40;;;;;;2088798;28;20033;-93
2022/05/27 07:16:29;;;;;;;3.83;1.10;;;16.40;89.00;;;;;;2086051;28;20028;-94
2022/05/27 07:17:49;;;;;;;3.28;0.70;;;16.40;88.50;;;;;;2088978;28;20029;-94
2022/05/27 07:19:08;;;;;;;3.70;0.90;;;16.50;88.20;;;;;;2087197;28;20033;-94
2022/05/27 07:20:28;;;;;;;5.00;1.02;;;16.60;88.00;;;;;;2094574;28;20033;-94
2022/05/27 07:21:48;;;;;;;4.63;1.10;;;16.60;87.60;;;;;;2087112;28;20041;-94
2022/05/27 07:23:08;;;;;;;4.10;1.05;;;16.60;87.10;;;;;;2085734;28;20480;-94
2022/05/27 07:24:27;;;;;;;6.28;1.20;;;16.60;86.60;;;;;;2089363;28;20040;-95
2022/05/27 07:25:47;;;;;;;6.63;1.30;;;16.60;85.70;;;;;;2088154;28;20408;-94
2022/05/27 07:27:07;;;;;;;4.97;1.00;;;16.50;84.80;;;;;;2089432;28;20037;-94
2022/05/27 07:28:27;;;;;;;3.78;1.05;;;16.50;84.70;;;;;;2092793;28;20151;-94
2022/05/27 07:29:47;;;;;;;5.18;1.08;;;16.50;84.70;;;;;;2094555;28;20032;-94
2022/05/27 07:31:06;;;;;;;4.25;1.13;;;16.60;84.60;;;;;;2087199;28;20037;-94